Fonda, North Dakota
Current Conditions -  °F | °C
As of 7:55 AM on Thursday 30 Oct 2014 (Local Time) from KRUG Reporting Station
Overcast Overcast  
Wind Chill: 22°   Ceiling: 900
Heat Index: 28°   Visibility: 10mi
Dew Point: 28°   Wind: 6mph
Humidity: 100%   Direction: 320°NW
Pressure: 30.25"   Gusts: NA
Location:  48.632°N, 99.9505°W
Report Text: KRUG 301255Z AUTO 32005KT 10SM OVC009 M02/M02 A3025 RMK AO2
Loading
Personal Weather Stations






























Interactive Weather Map
Tropical Storm Tracking
New forecast layout! Learn more

10-Day Weather Forecast

Advertisements
Track Severe Weather on mobile